Time;durP1;ratioP1;P1;durP2;ratioP2;P2;SDS_P1;SDS_P2;PMS_P1;PMS_P2;Temp;Humidity;BMP_temperature;BMP_pressure;BME280_temperature;BME280_humidity;BME280_pressure;Samples;Min_cycle;Max_cycle;Signal;HPM_P1;HPM_P2
2022/05/28 00:08:44;;;;;;;8.80;4.10;;;;;;;9.85;77.04;98282.64;433069;1270;98621;-41
2022/05/28 00:18:51;;;;;;;8.90;3.00;;;;;;;9.70;76.89;98281.70;433228;1270;111051;-42
2022/05/28 00:28:59;;;;;;;10.60;3.10;;;;;;;9.72;77.21;98280.38;432878;1271;108939;-41
2022/05/28 00:39:06;;;;;;;4.00;2.20;;;;;;;9.69;76.94;98271.02;433119;1270;97582;-43
2022/05/28 00:49:22;;;;;;;12.60;4.10;;;;;;;9.67;77.12;98273.40;433093;1270;108852;-41
2022/05/28 00:59:29;;;;;;;9.10;3.90;;;;;;;9.58;77.13;98270.29;433151;1270;97916;-44
2022/05/28 01:09:40;;;;;;;10.60;3.60;;;;;;;9.53;77.18;98266.77;433930;1259;111317;-43
2022/05/28 01:20:00;;;;;;;7.40;3.10;;;;;;;9.50;76.88;98268.56;433264;1270;107013;-43
2022/05/28 01:30:11;;;;;;;5.10;2.10;;;;;;;9.51;76.96;98262.52;433459;1269;98200;-43
2022/05/28 01:40:19;;;;;;;7.40;2.10;;;;;;;9.50;77.00;98261.49;433304;1270;110076;-43
2022/05/28 01:50:29;;;;;;;4.70;2.50;;;;;;;9.50;76.75;98258.25;433349;1269;108806;-41
2022/05/28 02:00:37;;;;;;;8.00;3.20;;;;;;;9.31;76.84;98249.14;433303;1270;97983;-42
2022/05/28 02:10:50;;;;;;;5.60;2.50;;;;;;;9.31;76.85;98233.89;433130;1268;110595;-41
2022/05/28 02:21:03;;;;;;;9.80;3.20;;;;;;;9.23;76.60;98244.58;433066;1270;109095;-43
2022/05/28 02:31:11;;;;;;;5.60;2.80;;;;;;;9.21;76.74;98235.67;433140;1269;97945;-41
2022/05/28 02:41:20;;;;;;;8.30;3.70;;;;;;;9.25;76.69;98226.11;433168;1269;108773;-41
2022/05/28 02:51:27;;;;;;;9.30;3.30;;;;;;;9.07;76.52;98214.46;433279;1270;97923;-43
2022/05/28 03:01:35;;;;;;;10.50;2.50;;;;;;;9.02;76.55;98216.34;433163;1270;111055;-41
2022/05/28 03:11:42;;;;;;;4.70;2.90;;;;;;;9.05;76.45;98213.16;433189;1270;109220;-43
2022/05/28 03:21:50;;;;;;;4.40;2.20;;;;;;;9.13;76.38;98212.39;433145;1269;97899;-42
2022/05/28 03:31:57;;;;;;;5.30;2.00;;;;;;;9.17;76.40;98222.27;433087;1269;107722;-43
2022/05/28 03:42:04;;;;;;;6.50;2.10;;;;;;;9.85;75.93;98224.97;433326;1268;96698;-42
2022/05/28 03:52:14;;;;;;;7.40;2.10;;;;;;;9.35;75.75;98228.23;433101;1269;111071;-41
2022/05/28 04:02:21;;;;;;;3.80;1.40;;;;;;;9.22;75.98;98224.40;433355;1269;108761;-42
2022/05/28 04:12:30;;;;;;;7.70;1.90;;;;;;;9.75;75.62;98222.23;433332;1270;96618;-41
2022/05/28 04:22:37;;;;;;;3.80;1.40;;;;;;;10.90;75.26;98221.77;433283;1270;108932;-40
2022/05/28 04:32:44;;;;;;;3.10;1.70;;;;;;;10.23;74.58;98216.02;433385;1269;98157;-41
2022/05/28 04:42:52;;;;;;;4.80;1.80;;;;;;;11.64;74.69;98205.82;433406;1270;110985;-43
2022/05/28 04:53:00;;;;;;;7.80;1.70;;;;;;;14.51;73.44;98201.80;433260;1271;108866;-41
2022/05/28 05:03:08;;;;;;;3.70;1.80;;;;;;;15.70;71.58;98198.48;433401;1269;97969;-42
2022/05/28 05:13:15;;;;;;;7.60;2.80;;;;;;;15.12;70.30;98208.59;433159;1271;108905;-41
2022/05/28 05:23:23;;;;;;;5.30;1.60;;;;;;;15.47;69.48;98203.84;433276;1269;97900;-44
2022/05/28 05:33:30;;;;;;;5.50;1.20;;;;;;;15.69;67.58;98207.71;433372;1269;110235;-40
2022/05/28 05:43:38;;;;;;;7.20;1.30;;;;;;;15.84;64.45;98220.46;433138;1270;111226;-41
2022/05/28 05:53:46;;;;;;;5.50;1.20;;;;;;;15.71;63.52;98216.48;433312;1270;97931;-41
2022/05/28 06:03:54;;;;;;;3.60;0.70;;;;;;;16.03;61.58;98217.06;433285;1271;109885;-43
2022/05/28 06:14:00;;;;;;;9.10;2.40;;;;;;;16.44;59.83;98219.75;433397;1271;107749;-40
2022/05/28 06:24:07;;;;;;;3.20;1.20;;;;;;;15.63;57.10;98215.05;433465;1270;97919;-43
2022/05/28 06:34:14;;;;;;;4.10;1.30;;;;;;;14.32;58.19;98217.84;433332;1269;111088;-41
2022/05/28 06:44:20;;;;;;;5.50;1.40;;;;;;;13.75;59.06;98216.92;433397;1271;108868;-41
2022/05/28 06:54:28;;;;;;;6.00;1.20;;;;;;;13.38;59.82;98212.23;433151;1270;96723;-40
2022/05/28 07:04:35;;;;;;;5.70;1.70;;;;;;;14.03;60.01;98209.15;433275;1270;111118;-41
2022/05/28 07:14:42;;;;;;;7.20;1.10;;;;;;;14.10;59.94;98211.23;433372;1269;108783;-41
2022/05/28 07:24:50;;;;;;;3.30;1.00;;;;;;;14.84;60.04;98204.09;433116;1271;97993;-41
2022/05/28 07:55:12;;;;;;;2.90;1.00;;;;;;;15.57;58.00;98181.00;432807;1271;98580;-41
2022/05/28 08:05:19;;;;;;;2.70;1.10;;;;;;;15.83;57.49;98175.03;432881;1269;110038;-41
2022/05/28 08:15:25;;;;;;;8.00;1.10;;;;;;;15.19;55.63;98171.09;432930;1269;108867;-41
2022/05/28 08:25:32;;;;;;;3.20;0.80;;;;;;;15.08;55.46;98162.64;432913;1269;97996;-45
2022/05/28 08:35:41;;;;;;;2.90;0.70;;;;;;;14.93;55.09;98179.69;432877;1271;111241;-41
2022/05/28 08:45:49;;;;;;;;;;;;;;;13.14;57.12;98217.25;432953;1269;109725;-44
2022/05/28 08:55:58;;;;;;;2.50;1.40;;;;;;;12.16;60.74;98200.75;433056;1269;97935;-42
2022/05/28 09:06:09;;;;;;;5.20;1.20;;;;;;;12.98;62.40;98182.66;432935;1271;97904;-41
2022/05/28 09:16:17;;;;;;;5.00;1.30;;;;;;;13.89;63.15;98169.23;432990;1271;108752;-42
2022/05/28 09:26:23;;;;;;;7.00;1.60;;;;;;;14.64;63.44;98161.20;433122;1269;478470;-40
2022/05/28 09:36:29;;;;;;;4.30;1.00;;;;;;;15.13;61.67;98153.27;433338;1270;97794;-42
2022/05/28 09:46:39;;;;;;;9.30;2.00;;;;;;;14.75;59.88;98150.59;433285;1270;108507;-43
2022/05/28 09:56:48;;;;;;;5.10;1.70;;;;;;;13.54;60.53;98186.30;432919;1271;97907;-41
2022/05/28 10:06:57;;;;;;;6.90;1.50;;;;;;;12.82;61.96;98195.40;433118;1269;110988;-42
2022/05/28 10:17:06;;;;;;;3.30;0.90;;;;;;;12.48;62.96;98184.57;432798;1271;108931;-41
2022/05/28 10:27:25;;;;;;;2.90;0.70;;;;;;;12.36;63.57;98190.94;433101;1269;97936;-41
2022/05/28 10:37:33;;;;;;;2.20;0.80;;;;;;;13.08;64.56;98168.44;433340;1269;109251;-41
2022/05/28 10:58:17;;;;;;;4.40;1.10;;;;;;;14.45;64.38;98143.91;433230;1269;111061;-40
2022/05/28 11:08:23;;;;;;;3.60;1.00;;;;;;;14.85;62.49;98140.64;433108;1270;107756;-41
2022/05/28 11:18:54;;;;;;;4.50;1.30;;;;;;;15.28;61.51;98137.44;433077;1270;97928;-41
2022/05/28 11:29:19;;;;;;;1.40;0.70;;;;;;;15.51;60.63;98142.21;433192;1269;108818;-43
2022/05/28 11:39:24;;;;;;;3.80;1.20;;;;;;;16.05;57.95;98132.45;433044;1269;98111;-41
2022/05/28 12:00:05;;;;;;;2.90;0.40;;;;;;;15.95;52.80;98143.80;433127;1271;108375;-41
2022/05/28 12:10:28;;;;;;;7.10;1.60;;;;;;;14.36;53.10;98225.62;433355;1270;97913;-41
2022/05/28 12:41:02;;;;;;;2.10;0.90;;;;;;;12.28;62.57;98209.52;433195;1270;97904;-41
2022/05/28 12:51:16;;;;;;;3.10;0.80;;;;;;;12.89;63.25;98190.14;433481;1269;111192;-41
2022/05/28 13:11:27;;;;;;;3.10;1.00;;;;;;;13.59;63.15;98181.05;433353;1270;96673;-41
2022/05/28 13:21:50;;;;;;;3.70;0.60;;;;;;;14.04;62.35;98178.30;433525;1269;111130;-40
2022/05/28 13:32:05;;;;;;;1.50;0.50;;;;;;;14.58;60.95;98163.72;433578;1270;108807;-41
2022/05/28 13:42:13;;;;;;;2.00;0.50;;;;;;;14.67;58.96;98162.33;433439;1269;97954;-41
2022/05/28 13:52:21;;;;;;;4.30;0.70;;;;;;;14.20;58.75;98168.88;433390;1270;111049;-42
2022/05/28 14:02:29;;;;;;;3.80;0.80;;;;;;;13.42;57.76;98192.86;433479;1269;109392;-41
2022/05/28 14:12:44;;;;;;;0.80;0.50;;;;;;;12.79;58.42;98197.76;433479;1269;97920;-40
2022/05/28 14:22:53;;;;;;;8.50;0.70;;;;;;;12.67;58.93;98206.85;433462;1269;111224;-44
2022/05/28 14:43:07;;;;;;;1.40;0.80;;;;;;;12.76;59.38;98235.14;433660;1269;96701;-41
2022/05/28 14:53:16;;;;;;;1.70;1.40;;;;;;;13.08;59.83;98215.64;433436;1269;111131;-42
2022/05/28 15:13:35;;;;;;;4.30;1.10;;;;;;;13.57;59.61;98200.81;433654;1270;98028;-41
2022/05/28 15:23:41;;;;;;;0.60;0.60;;;;;;;13.60;59.22;98184.41;433780;1269;110923;-41
2022/05/28 15:33:50;;;;;;;2.10;1.00;;;;;;;13.66;58.92;98187.92;433686;1269;109234;-46
2022/05/28 15:43:57;;;;;;;3.30;1.20;;;;;;;13.57;58.62;98201.70;433708;1269;97904;-40
2022/05/28 16:04:16;;;;;;;3.20;1.10;;;;;;;12.51;60.60;98190.86;433494;1270;108276;-40
2022/05/28 16:14:24;;;;;;;5.40;1.60;;;;;;;12.47;61.51;98181.69;433332;1268;97917;-40
2022/05/28 16:24:31;;;;;;;4.70;1.90;;;;;;;12.54;62.19;98193.52;433687;1270;110690;-41
2022/05/28 16:34:39;;;;;;;6.20;1.70;;;;;;;12.35;62.74;98223.75;433448;1269;108817;-42
2022/05/28 16:44:45;;;;;;;2.80;2.00;;;;;;;12.19;63.53;98242.41;433545;1269;97904;-41
2022/05/28 16:54:53;;;;;;;1.80;0.80;;;;;;;12.08;63.75;98232.75;433461;1270;111120;-43
2022/05/28 17:05:00;;;;;;;2.00;1.50;;;;;;;12.02;64.10;98234.37;433428;1269;108747;-42
2022/05/28 17:15:06;;;;;;;3.90;1.60;;;;;;;11.98;64.47;98230.45;433540;1270;96693;-40
2022/05/28 17:25:13;;;;;;;5.60;1.60;;;;;;;11.95;64.46;98235.36;433453;1269;108884;-42
2022/05/28 17:35:19;;;;;;;5.70;2.70;;;;;;;11.70;64.45;98236.15;433405;1269;97906;-45
2022/05/28 17:45:26;;;;;;;2.00;1.30;;;;;;;11.57;64.39;98242.17;433457;1268;111312;-40
2022/05/28 17:55:34;;;;;;;2.40;1.40;;;;;;;11.38;64.37;98252.52;433551;1270;108778;-44
2022/05/28 18:05:42;;;;;;;4.80;1.40;;;;;;;11.17;64.45;98256.02;433198;1269;97415;-41
2022/05/28 18:15:53;;;;;;;9.80;2.60;;;;;;;10.92;64.79;98256.11;433472;1270;108942;-41
2022/05/28 18:36:15;;;;;;;6.00;3.50;;;;;;;10.47;65.51;98261.70;433653;1270;97899;-41
2022/05/28 18:46:22;;;;;;;14.70;5.30;;;;;;;10.32;65.83;98273.38;433409;1269;111186;-45
2022/05/28 18:56:28;;;;;;;5.90;2.80;;;;;;;10.34;66.06;98276.98;433327;1269;109327;-41
2022/05/28 19:16:46;;;;;;;11.90;4.80;;;;;;;10.19;66.78;98288.55;433447;1269;110746;-42
2022/05/28 19:37:16;;;;;;;12.60;6.00;;;;;;;9.94;66.82;98294.93;433203;1269;97916;-40
2022/05/28 19:47:26;;;;;;;17.50;8.10;;;;;;;9.95;67.05;98297.04;433334;1270;108775;-44
2022/05/28 19:57:33;;;;;;;18.70;10.70;;;;;;;10.06;67.31;98301.88;433367;1269;97510;-45
2022/05/28 20:07:40;;;;;;;18.60;9.70;;;;;;;9.99;67.39;98307.80;433328;1269;112905;-42
2022/05/28 20:17:48;;;;;;;18.20;9.50;;;;;;;9.76;67.37;98305.06;433457;1269;109167;-40
2022/05/28 20:27:56;;;;;;;9.50;5.70;;;;;;;9.61;67.40;98310.06;433180;1269;97888;-41
2022/05/28 20:48:17;;;;;;;8.50;3.80;;;;;;;9.75;67.80;98314.02;433265;1270;108996;-41
2022/05/28 20:58:29;;;;;;;9.80;4.80;;;;;;;9.82;67.83;98304.87;433338;1270;97915;-40
2022/05/28 21:08:37;;;;;;;6.20;3.20;;;;;;;9.96;67.97;98311.20;433246;1269;108714;-42
2022/05/28 21:18:46;;;;;;;5.30;2.80;;;;;;;9.94;67.87;98310.61;433392;1269;98077;-44
2022/05/28 21:39:17;;;;;;;5.70;2.90;;;;;;;10.24;67.90;98305.95;433158;1270;109245;-41
2022/05/28 21:49:25;;;;;;;10.40;3.10;;;;;;;10.02;67.76;98306.06;433390;1268;97890;-41
2022/05/28 21:59:32;;;;;;;6.30;3.20;;;;;;;9.70;67.74;98320.77;433248;1270;111105;-41
2022/05/28 22:09:41;;;;;;;8.40;2.30;;;;;;;9.38;67.98;98330.56;433296;1269;108925;-41
2022/05/28 22:19:48;;;;;;;7.80;1.90;;;;;;;9.32;68.13;98331.44;433194;1270;97926;-44
2022/05/28 22:29:55;;;;;;;4.80;1.60;;;;;;;9.43;68.38;98332.27;433118;1271;111160;-41
2022/05/28 22:40:02;;;;;;;7.70;3.00;;;;;;;9.58;68.53;98326.11;433272;1270;108968;-42
2022/05/28 22:50:13;;;;;;;15.30;2.90;;;;;;;9.58;68.71;98323.04;433286;1269;97903;-42
2022/05/28 23:00:23;;;;;;;10.50;3.00;;;;;;;9.68;68.77;98309.95;433198;1269;111128;-41
2022/05/28 23:10:31;;;;;;;6.70;2.10;;;;;;;9.41;68.43;98306.94;433011;1271;107745;-41
2022/05/28 23:20:39;;;;;;;8.30;3.00;;;;;;;9.15;68.61;98309.02;433420;1270;97508;-41
2022/05/28 23:30:46;;;;;;;7.80;3.00;;;;;;;8.91;68.59;98302.95;433064;1269;107671;-40
2022/05/28 23:40:53;;;;;;;9.20;3.50;;;;;;;8.69;68.99;98293.67;433123;1270;97900;-44
2022/05/28 23:51:02;;;;;;;5.20;2.40;;;;;;;8.41;69.04;98284.63;433391;1271;111758;-41
